Hovedside
METAR-TAF:

METAR-TAF

Lufthavner :

Björneborg, Finland

Björneborg lufthavn

breddegrad: 61-28N, lengdegrad: 021-48E, høyde over havet: 13 m

Gjeldene værobservasjon

Denne rapporten ble laget for 19 minutter siden, klokken 07:20 UTC
Vind 4 kt fra Øst-sørøst
Temperatur -1°C
Luftfuktighet 86%
Trykk 1032 hPa
Sikt 10 km eller mer
ingen skyer under 1500 m og ingen bygeskyer

METAR: EFPO 240720Z AUTO 11004KT CAVOK M01/M03 Q1032

Tid: 10:39 (07:39 UTC)

Varsel

Denne rapporten ble laget for 2 timer og 8 minutter siden, klokken 05:31 UTC
Varsel gyldig fra 24. klokken 06 UTC til 24. klokken 15 UTC
Vind 3 kt fra Øst
Sikt 10 km eller mer
ingen skyer under 1500 m og ingen bygeskyer

TAF: EFPO 240531Z 2406/2415 08003KT CAVOK

Værobservasjoner og værvarsel for over 4000 flyplasser (METAR- og TAF-rapporter).

Tilgjengelige stasjoner er representert av de røde og gule prikkene på kartet.

Hold musepekeren over prikken for å se navnet på stasjonen.

Klikk så for å se værobservasjoner og -varsler.

For å forandre kartet kan du klikke på den grønne knappen med svart kryss for å zoome inn, på den grønne knappen med strek for å zoome ut, eller på de grønne pilene for å se tilstøtende kart.


METAR-TAF: